createdAt,value
2022-12-23T00:00:55.581Z,78.72
2022-12-23T00:03:26.783Z,78.38
2022-12-23T00:05:57.917Z,77.74
2022-12-23T00:08:27.829Z,77.16
2022-12-23T00:10:58.059Z,77.30
2022-12-23T00:13:44.682Z,77.88
2022-12-23T00:16:14.829Z,77.98
2022-12-23T00:18:44.324Z,78.24
2022-12-23T00:21:15.707Z,77.96
2022-12-23T00:23:45.736Z,77.66
2022-12-23T00:26:15.804Z,76.95
2022-12-23T00:28:45.021Z,78.00
2022-12-23T00:31:14.766Z,77.42
2022-12-23T00:33:45.160Z,77.04
2022-12-23T00:36:18.422Z,77.99
2022-12-23T00:39:05.229Z,77.14
2022-12-23T00:41:52.338Z,76.77
2022-12-23T00:44:21.726Z,78.11
2022-12-23T00:46:51.383Z,77.76
2022-12-23T00:49:37.883Z,77.83
2022-12-23T00:52:09.564Z,77.61
2022-12-23T00:54:38.806Z,77.79
2022-12-23T00:57:08.379Z,76.78
2022-12-23T00:59:37.647Z,77.00
2022-12-23T01:02:24.363Z,77.26
2022-12-23T01:05:10.755Z,77.01
2022-12-23T01:07:42.839Z,76.73
2022-12-23T01:10:13.993Z,76.69
2022-12-23T01:12:43.689Z,76.69
2022-12-23T01:15:13.023Z,76.62
2022-12-23T01:17:42.734Z,76.49
2022-12-23T01:20:12.602Z,77.73
2022-12-23T01:22:43.664Z,77.74
2022-12-23T01:25:13.470Z,78.38
2022-12-23T01:27:43.143Z,77.28
2022-12-23T01:30:12.518Z,76.85
2022-12-23T01:32:42.136Z,76.84
2022-12-23T01:35:11.385Z,76.84
2022-12-23T01:37:41.037Z,76.84
2022-12-23T01:40:12.311Z,77.83
2022-12-23T01:42:47.543Z,78.28
2022-12-23T01:45:18.558Z,78.54
2022-12-23T01:47:50.561Z,78.62
2022-12-23T01:50:21.251Z,78.91
2022-12-23T01:52:52.059Z,79.19
2022-12-23T01:55:24.089Z,79.10
2022-12-23T01:57:53.958Z,78.27
2022-12-23T02:00:40.583Z,78.42
2022-12-23T02:03:27.665Z,78.86
2022-12-23T02:06:16.971Z,78.96
2022-12-23T02:09:03.787Z,78.62
2022-12-23T02:11:40.695Z,78.80
2022-12-23T02:14:31.363Z,79.16
2022-12-23T02:17:02.145Z,78.93
2022-12-23T02:19:42.463Z,79.12
2022-12-23T02:22:15.307Z,79.36
2022-12-23T02:24:59.839Z,79.45
2022-12-23T02:27:31.413Z,79.72
2022-12-23T02:30:28.272Z,79.02
2022-12-23T02:33:02.741Z,79.40
2022-12-23T02:35:33.052Z,79.49
2022-12-23T02:38:04.047Z,79.91
2022-12-23T02:40:35.484Z,79.45
2022-12-23T02:43:06.138Z,79.84
2022-12-23T02:45:36.862Z,80.22
2022-12-23T02:48:08.411Z,80.13
2022-12-23T02:50:38.550Z,80.38
2022-12-23T02:53:09.512Z,79.48
2022-12-23T02:55:39.558Z,79.75
2022-12-23T02:58:09.835Z,80.20
2022-12-23T03:00:39.490Z,79.67
2022-12-23T03:03:10.479Z,80.14
2022-12-23T03:05:41.318Z,79.37
2022-12-23T03:08:13.008Z,79.26
2022-12-23T03:10:46.127Z,79.37
2022-12-23T03:13:16.587Z,79.42
2022-12-23T03:15:48.363Z,78.85
2022-12-23T03:18:21.846Z,79.68
2022-12-23T03:20:52.173Z,80.03
2022-12-23T03:23:22.670Z,80.26
2022-12-23T03:25:55.343Z,80.67
2022-12-23T03:28:26.432Z,79.80
2022-12-23T03:30:56.538Z,79.98
2022-12-23T03:33:27.621Z,80.50
2022-12-23T03:35:58.291Z,80.65
2022-12-23T03:38:27.625Z,80.36
2022-12-23T03:40:57.825Z,80.67
2022-12-23T03:43:27.502Z,79.51
2022-12-23T03:45:58.168Z,79.82
2022-12-23T03:48:31.250Z,79.92
2022-12-23T03:51:01.722Z,79.11
2022-12-23T03:53:31.202Z,79.89
2022-12-23T03:56:01.700Z,79.30
2022-12-23T03:58:32.922Z,80.62
2022-12-23T04:01:04.164Z,80.38
2022-12-23T04:03:36.659Z,80.09
2022-12-23T04:06:07.172Z,80.96
2022-12-23T04:08:36.879Z,80.88
2022-12-23T04:11:06.400Z,81.04
2022-12-23T04:13:35.656Z,81.15
2022-12-23T04:16:05.623Z,80.71
2022-12-23T04:18:36.381Z,80.25
2022-12-23T04:21:06.252Z,79.71
2022-12-23T04:23:35.476Z,79.93
2022-12-23T04:26:05.238Z,79.24
2022-12-23T04:28:34.431Z,79.29
2022-12-23T04:31:04.001Z,80.04
2022-12-23T04:33:33.266Z,79.52
2022-12-23T04:36:04.342Z,79.46
2022-12-23T04:38:33.575Z,79.80
2022-12-23T04:41:03.285Z,80.01
2022-12-23T04:43:32.607Z,80.02
2022-12-23T04:46:02.175Z,80.11
2022-12-23T04:48:31.427Z,79.79
2022-12-23T04:51:04.579Z,80.38
2022-12-23T04:53:33.892Z,79.53
2022-12-23T04:56:03.448Z,80.32
2022-12-23T04:58:32.661Z,79.79
2022-12-23T05:01:02.981Z,80.28
2022-12-23T05:03:32.405Z,79.40
2022-12-23T05:06:03.606Z,79.24
2022-12-23T05:08:33.117Z,78.86
2022-12-23T05:11:04.509Z,80.35
2022-12-23T05:13:33.772Z,79.79
2022-12-23T05:16:03.391Z,80.13
2022-12-23T05:18:32.580Z,80.48
2022-12-23T05:21:03.601Z,79.53
2022-12-23T05:23:32.863Z,79.73
2022-12-23T05:26:02.400Z,80.14
2022-12-23T05:28:31.613Z,80.71
2022-12-23T05:31:01.138Z,80.26
2022-12-23T05:33:30.655Z,80.21
2022-12-23T05:36:00.336Z,79.97
2022-12-23T05:38:31.030Z,80.14
2022-12-23T05:41:00.650Z,79.09
2022-12-23T05:43:30.020Z,78.85
2022-12-23T05:45:59.693Z,78.42
2022-12-23T05:48:28.914Z,78.41
2022-12-23T05:50:58.471Z,79.01
2022-12-23T05:53:27.765Z,78.27
2022-12-23T05:55:58.863Z,77.83
2022-12-23T05:58:28.257Z,78.09
2022-12-23T06:00:57.862Z,78.47
2022-12-23T06:03:27.307Z,77.99
2022-12-23T06:05:57.009Z,78.04
2022-12-23T06:08:26.514Z,77.71
2022-12-23T06:10:56.124Z,77.22
2022-12-23T06:13:26.935Z,77.91
2022-12-23T06:15:56.514Z,77.30
2022-12-23T06:18:25.797Z,77.94
2022-12-23T06:20:55.497Z,78.11
2022-12-23T06:23:24.654Z,77.63
2022-12-23T06:25:59.613Z,77.59
2022-12-23T06:28:30.553Z,77.77
2022-12-23T06:31:00.172Z,77.31
2022-12-23T06:33:29.562Z,76.99
2022-12-23T06:35:59.174Z,77.12
2022-12-23T06:38:28.449Z,78.31
2022-12-23T06:40:58.039Z,79.28
2022-12-23T06:43:27.275Z,79.07
2022-12-23T06:45:58.284Z,78.73
2022-12-23T06:48:27.540Z,78.51
2022-12-23T06:50:57.024Z,77.94
2022-12-23T06:53:26.305Z,77.67
2022-12-23T06:56:00.712Z,77.52
2022-12-23T06:58:29.909Z,77.97
2022-12-23T07:01:01.066Z,77.60
2022-12-23T07:03:30.459Z,76.92
2022-12-23T07:06:00.400Z,77.75
2022-12-23T07:08:29.664Z,78.36
2022-12-23T07:11:00.513Z,78.38
2022-12-23T07:13:29.731Z,78.20
2022-12-23T07:16:00.781Z,77.31
2022-12-23T07:18:30.035Z,77.27
2022-12-23T07:21:01.033Z,77.02
2022-12-23T07:23:30.480Z,77.26
2022-12-23T07:26:00.085Z,77.44
2022-12-23T07:28:29.278Z,77.28
2022-12-23T07:30:58.913Z,77.56
2022-12-23T07:33:29.611Z,77.46
2022-12-23T07:35:59.753Z,77.31
2022-12-23T07:38:28.994Z,77.60
2022-12-23T07:40:58.677Z,77.33
2022-12-23T07:43:27.916Z,77.29
2022-12-23T07:46:00.405Z,77.06
2022-12-23T07:48:31.799Z,77.46
2022-12-23T07:51:01.798Z,77.11
2022-12-23T07:53:31.141Z,76.80
2022-12-23T07:56:00.731Z,76.81
2022-12-23T07:58:29.998Z,77.15
2022-12-23T08:01:02.885Z,77.32
2022-12-23T08:03:33.691Z,77.66
2022-12-23T08:06:05.246Z,77.94
2022-12-23T08:08:34.707Z,77.38
2022-12-23T08:11:05.839Z,77.53
2022-12-23T08:13:35.460Z,77.11
2022-12-23T08:16:05.440Z,76.67
2022-12-23T08:18:36.546Z,76.64
2022-12-23T08:21:07.012Z,76.42
2022-12-23T08:23:36.590Z,76.72
2022-12-23T08:26:06.882Z,76.72
2022-12-23T08:28:36.622Z,77.33
2022-12-23T08:31:07.269Z,76.84
2022-12-23T08:33:38.367Z,76.71
2022-12-23T08:36:08.815Z,76.86
2022-12-23T08:38:38.216Z,76.64
2022-12-23T08:41:10.502Z,76.65
2022-12-23T08:43:39.854Z,76.75
2022-12-23T08:46:09.629Z,76.75
2022-12-23T08:48:45.181Z,77.59
2022-12-23T08:51:18.966Z,76.86
2022-12-23T08:53:48.367Z,76.82
2022-12-23T08:56:19.586Z,76.73
2022-12-23T08:58:49.673Z,76.84
2022-12-23T09:01:19.862Z,77.17
2022-12-23T09:03:50.692Z,77.60
2022-12-23T09:06:28.630Z,78.00
2022-12-23T09:08:59.202Z,78.37
2022-12-23T09:11:30.258Z,78.08
2022-12-23T09:13:59.910Z,77.94
2022-12-23T09:16:29.703Z,78.07
2022-12-23T09:19:00.534Z,78.77
2022-12-23T09:21:30.164Z,78.23
2022-12-23T09:23:59.438Z,78.14
2022-12-23T09:26:29.515Z,78.50
2022-12-23T09:28:58.919Z,78.38
2022-12-23T09:31:35.830Z,78.07
2022-12-23T09:34:07.812Z,78.09
2022-12-23T09:36:37.728Z,78.95
2022-12-23T09:39:06.975Z,78.78
2022-12-23T09:41:43.790Z,78.71
2022-12-23T09:44:16.164Z,79.10
2022-12-23T09:46:47.076Z,78.41
2022-12-23T09:49:18.324Z,78.36
2022-12-23T09:51:47.830Z,79.44
2022-12-23T09:54:17.976Z,79.28
2022-12-23T09:56:49.138Z,78.15
2022-12-23T09:59:21.398Z,78.93
2022-12-23T10:01:53.512Z,79.21
2022-12-23T10:04:43.715Z,78.83
2022-12-23T10:07:18.680Z,78.29
2022-12-23T10:09:47.981Z,78.20
2022-12-23T10:12:27.311Z,77.90
2022-12-23T10:14:57.882Z,77.71
2022-12-23T10:17:28.495Z,77.65
2022-12-23T10:19:58.653Z,78.78
2022-12-23T10:22:31.205Z,78.17
2022-12-23T10:25:00.666Z,78.35
2022-12-23T10:27:31.403Z,77.96
2022-12-23T10:30:09.638Z,77.86
2022-12-23T10:32:54.181Z,78.26
2022-12-23T10:35:24.303Z,78.58
2022-12-23T10:37:56.957Z,78.38
2022-12-23T10:40:27.623Z,78.58
2022-12-23T10:42:58.942Z,78.05
2022-12-23T10:45:31.935Z,77.58
2022-12-23T10:48:08.634Z,77.56
2022-12-23T10:50:48.061Z,77.97
2022-12-23T10:53:21.529Z,77.76
2022-12-23T10:55:50.785Z,78.18
2022-12-23T10:58:20.373Z,78.65
2022-12-23T11:00:51.156Z,78.65
2022-12-23T11:03:21.741Z,77.92
2022-12-23T11:05:51.574Z,78.12
2022-12-23T11:08:23.530Z,77.29
2022-12-23T11:10:52.797Z,77.39
2022-12-23T11:13:26.879Z,78.23
2022-12-23T11:15:56.269Z,77.92
2022-12-23T11:18:25.897Z,78.49
2022-12-23T11:21:04.761Z,77.95
2022-12-23T11:23:36.962Z,77.48
2022-12-23T11:26:06.945Z,77.76
2022-12-23T11:28:37.451Z,78.13
2022-12-23T11:31:09.598Z,78.16
2022-12-23T11:33:40.540Z,77.03
2022-12-23T11:36:16.083Z,78.21
2022-12-23T11:38:50.924Z,77.85
2022-12-23T11:41:20.896Z,77.32
2022-12-23T11:43:51.855Z,77.80
2022-12-23T11:46:26.554Z,78.05
2022-12-23T11:49:06.518Z,77.38
2022-12-23T11:51:35.824Z,76.71
2022-12-23T11:54:07.803Z,77.02
2022-12-23T11:56:38.026Z,77.75
2022-12-23T11:59:08.869Z,77.95
2022-12-23T12:01:39.606Z,77.01
2022-12-23T12:04:09.701Z,77.76
2022-12-23T12:06:43.253Z,77.84
2022-12-23T12:09:14.878Z,77.22
2022-12-23T12:11:46.278Z,77.14
2022-12-23T12:14:21.091Z,76.75
2022-12-23T12:16:53.469Z,76.21
2022-12-23T12:19:24.095Z,76.06
2022-12-23T12:21:53.559Z,76.41
2022-12-23T12:24:25.933Z,76.20
2022-12-23T12:26:56.182Z,76.00
2022-12-23T12:29:27.284Z,76.66
2022-12-23T12:31:57.061Z,76.55
2022-12-23T12:34:31.819Z,76.71
2022-12-23T12:37:01.818Z,76.81
2022-12-23T12:39:34.548Z,76.50
2022-12-23T12:42:05.986Z,76.17
2022-12-23T12:44:36.644Z,75.90
2022-12-23T12:47:27.870Z,75.99
2022-12-23T12:49:58.937Z,76.05
2022-12-23T12:52:30.419Z,76.62
2022-12-23T12:55:03.597Z,77.41
2022-12-23T12:57:33.224Z,77.26
2022-12-23T13:00:06.390Z,77.05
2022-12-23T13:02:40.037Z,76.92
2022-12-23T13:05:21.968Z,76.23
2022-12-23T13:07:57.281Z,77.41
2022-12-23T13:10:33.983Z,76.86
2022-12-23T13:13:04.869Z,77.36
2022-12-23T13:15:34.715Z,77.03
2022-12-23T13:18:08.667Z,78.38
2022-12-23T13:20:39.445Z,77.89
2022-12-23T13:23:41.130Z,77.38
2022-12-23T13:26:01.224Z,76.72
2022-12-23T13:28:32.586Z,76.71
2022-12-23T13:31:03.474Z,76.48
2022-12-23T13:33:33.788Z,76.76
2022-12-23T13:36:08.821Z,76.75
2022-12-23T13:38:41.886Z,76.37
2022-12-23T13:41:14.371Z,76.28
2022-12-23T13:43:44.028Z,76.27
2022-12-23T13:46:16.614Z,76.22
2022-12-23T13:48:47.988Z,75.82
2022-12-23T13:51:19.255Z,76.51
2022-12-23T13:53:51.252Z,76.28
2022-12-23T13:56:24.124Z,76.48
2022-12-23T13:58:53.708Z,75.78
2022-12-23T14:01:31.728Z,75.74
2022-12-23T14:04:27.378Z,75.75
2022-12-23T14:06:57.730Z,75.13
2022-12-23T14:09:29.632Z,75.26
2022-12-23T14:12:04.284Z,75.09
2022-12-23T14:14:33.970Z,75.30
2022-12-23T14:17:04.832Z,75.19
2022-12-23T14:19:43.783Z,75.31
2022-12-23T14:22:23.350Z,75.18
2022-12-23T14:25:02.575Z,75.12
2022-12-23T14:27:41.808Z,75.48
2022-12-23T14:30:13.253Z,75.43
2022-12-23T14:32:47.807Z,75.68
2022-12-23T14:35:22.243Z,75.11
2022-12-23T14:38:11.788Z,76.02
2022-12-23T14:40:54.556Z,75.91
2022-12-23T14:43:27.218Z,75.29
2022-12-23T14:45:57.468Z,75.27
2022-12-23T14:48:45.580Z,75.22
2022-12-23T14:51:23.522Z,75.39
2022-12-23T14:54:07.834Z,75.16
2022-12-23T14:56:42.189Z,74.97
2022-12-23T14:59:15.964Z,74.98
2022-12-23T15:01:48.239Z,75.21
2022-12-23T15:04:18.851Z,75.06
2022-12-23T15:06:48.803Z,74.89
2022-12-23T15:09:20.903Z,75.43
2022-12-23T15:11:50.225Z,75.29
2022-12-23T15:14:23.180Z,76.19
2022-12-23T15:16:52.518Z,76.69
2022-12-23T15:19:23.079Z,76.86
2022-12-23T15:22:02.006Z,76.88
2022-12-23T15:24:37.445Z,76.45
2022-12-23T15:29:57.750Z,76.22
2022-12-23T15:32:27.150Z,76.46
2022-12-23T15:34:57.684Z,77.25
2022-12-23T15:37:28.229Z,76.17
2022-12-23T15:40:06.182Z,76.67
2022-12-23T15:42:41.099Z,76.30
2022-12-23T15:45:25.912Z,76.22
2022-12-23T15:47:55.395Z,76.12
2022-12-23T15:50:25.029Z,76.43
2022-12-23T15:52:55.450Z,76.52
2022-12-23T15:55:25.524Z,76.33
2022-12-23T15:57:54.881Z,76.41
2022-12-23T16:00:27.161Z,76.20
2022-12-23T16:03:02.385Z,76.96
2022-12-23T16:05:34.375Z,76.20
2022-12-23T16:08:10.011Z,75.40
2022-12-23T16:10:39.807Z,74.92
2022-12-23T16:13:13.812Z,75.25
2022-12-23T16:15:45.075Z,75.38
2022-12-23T16:18:15.083Z,75.78
2022-12-23T16:20:44.957Z,75.91
2022-12-23T16:23:14.312Z,76.00
2022-12-23T16:25:50.164Z,75.45
2022-12-23T16:28:23.145Z,75.35
2022-12-23T16:30:55.094Z,75.63
2022-12-23T16:33:26.453Z,76.62
2022-12-23T16:35:56.713Z,77.53
2022-12-23T16:38:26.663Z,77.09
2022-12-23T16:40:56.942Z,76.37
2022-12-23T16:43:26.221Z,75.45
2022-12-23T16:45:57.672Z,75.27
2022-12-23T16:48:28.241Z,75.49
2022-12-23T16:50:57.955Z,75.38
2022-12-23T16:53:27.380Z,75.38
2022-12-23T16:56:00.899Z,74.99
2022-12-23T16:58:30.691Z,75.63
2022-12-23T17:01:01.818Z,75.25
2022-12-23T17:03:32.746Z,75.64
2022-12-23T17:06:02.456Z,76.28
2022-12-23T17:08:31.805Z,76.56
2022-12-23T17:11:01.464Z,76.53
2022-12-23T17:13:33.039Z,78.04
2022-12-23T17:16:04.228Z,78.30
2022-12-23T17:18:33.587Z,79.09
2022-12-23T17:21:03.203Z,78.04
2022-12-23T17:23:32.686Z,77.96
2022-12-23T17:26:02.268Z,77.60
2022-12-23T17:28:32.674Z,77.08
2022-12-23T17:31:10.215Z,78.00
2022-12-23T17:33:43.174Z,77.13
2022-12-23T17:36:12.868Z,76.68
2022-12-23T17:38:42.211Z,76.66
2022-12-23T17:41:12.461Z,76.45
2022-12-23T17:43:41.837Z,75.71
2022-12-23T17:46:13.378Z,75.50
2022-12-23T17:48:42.952Z,75.51
2022-12-23T17:51:13.853Z,75.33
2022-12-23T17:53:43.164Z,76.42
2022-12-23T17:56:14.205Z,76.74
2022-12-23T17:58:43.490Z,75.66
2022-12-23T18:01:16.642Z,76.03
2022-12-23T18:03:45.899Z,76.41
2022-12-23T18:06:15.754Z,75.62
2022-12-23T18:08:45.231Z,75.14
2022-12-23T18:11:17.770Z,75.23
2022-12-23T18:13:47.084Z,75.47
2022-12-23T18:16:18.314Z,74.93
2022-12-23T18:18:47.886Z,74.75
2022-12-23T18:21:19.021Z,75.20
2022-12-23T18:23:48.519Z,75.11
2022-12-23T18:26:18.258Z,74.94
2022-12-23T18:28:47.612Z,74.81
2022-12-23T18:31:19.252Z,74.36
2022-12-23T18:33:48.956Z,73.76
2022-12-23T18:36:21.793Z,74.16
2022-12-23T18:38:52.294Z,73.70
2022-12-23T18:41:22.464Z,73.55
2022-12-23T18:43:52.276Z,73.58
2022-12-23T18:46:23.573Z,73.36
2022-12-23T18:51:38.970Z,73.73
2022-12-23T18:54:08.253Z,73.60
2022-12-23T18:56:38.096Z,73.23
2022-12-23T18:59:07.519Z,74.14
2022-12-23T19:01:38.762Z,73.47
2022-12-23T19:07:07.137Z,74.12
2022-12-23T19:09:39.023Z,73.54
2022-12-23T19:12:08.804Z,73.97
2022-12-23T19:14:39.749Z,73.61
2022-12-23T19:17:10.911Z,73.97
2022-12-23T19:19:40.247Z,73.95
2022-12-23T19:22:10.003Z,73.22
2022-12-23T19:24:51.935Z,73.05
2022-12-23T19:27:29.118Z,73.37
2022-12-23T19:29:59.213Z,73.09
2022-12-23T19:32:30.326Z,72.92
2022-12-23T19:34:59.560Z,73.49
2022-12-23T19:37:29.178Z,73.85
2022-12-23T19:39:58.452Z,74.08
2022-12-23T19:42:28.016Z,73.77
2022-12-23T19:44:57.513Z,73.13
2022-12-23T19:47:27.095Z,72.89
2022-12-23T19:49:57.775Z,72.55
2022-12-23T19:52:27.347Z,72.90
2022-12-23T19:54:56.697Z,73.30
2022-12-23T19:57:26.371Z,72.15
2022-12-23T19:59:55.612Z,72.63
2022-12-23T20:02:25.257Z,72.55
2022-12-23T20:04:54.662Z,72.04
2022-12-23T20:07:25.880Z,72.96
2022-12-23T20:09:55.152Z,72.51
2022-12-23T20:12:26.523Z,72.18
2022-12-23T20:14:55.839Z,72.68
2022-12-23T20:17:25.418Z,71.71
2022-12-23T20:19:54.689Z,72.49
2022-12-23T20:22:25.899Z,71.93
2022-12-23T20:24:55.207Z,71.77
2022-12-23T20:27:28.127Z,71.35
2022-12-23T20:29:57.649Z,71.92
2022-12-23T20:32:27.265Z,71.91
2022-12-23T20:34:56.533Z,71.99
2022-12-23T20:37:27.814Z,71.82
2022-12-23T20:39:57.107Z,71.91
2022-12-23T20:42:28.045Z,71.89
2022-12-23T20:44:57.294Z,72.05
2022-12-23T20:47:26.968Z,71.84
2022-12-23T20:49:56.325Z,71.09
2022-12-23T20:52:27.573Z,71.01
2022-12-23T20:54:57.255Z,71.13
2022-12-23T20:57:27.018Z,71.30
2022-12-23T20:59:56.369Z,71.07
2022-12-23T21:02:26.253Z,71.19
2022-12-23T21:04:55.590Z,71.29
2022-12-23T21:07:26.432Z,71.16
2022-12-23T21:09:57.440Z,70.75
2022-12-23T21:12:27.269Z,71.00
2022-12-23T21:14:56.675Z,71.30
2022-12-23T21:17:26.379Z,71.19
2022-12-23T21:19:56.810Z,70.86
2022-12-23T21:22:27.857Z,70.84
2022-12-23T21:24:58.778Z,70.70
2022-12-23T21:27:28.598Z,70.64
2022-12-23T21:29:57.946Z,70.82
2022-12-23T21:32:27.565Z,70.96
2022-12-23T21:34:57.100Z,70.66
2022-12-23T21:37:27.533Z,70.85
2022-12-23T21:39:56.835Z,70.54
2022-12-23T21:42:28.034Z,70.45
2022-12-23T21:44:57.269Z,70.58
2022-12-23T21:47:26.896Z,70.49
2022-12-23T21:49:56.192Z,70.63
2022-12-23T21:52:25.785Z,70.47
2022-12-23T21:54:54.989Z,70.32
2022-12-23T21:57:24.677Z,70.44
2022-12-23T21:59:55.566Z,70.38
2022-12-23T22:02:25.333Z,70.12
2022-12-23T22:04:54.783Z,70.34
2022-12-23T22:07:24.376Z,70.43
2022-12-23T22:09:53.757Z,70.32
2022-12-23T22:12:23.341Z,70.37
2022-12-23T22:14:52.800Z,70.23
2022-12-23T22:17:24.140Z,70.32
2022-12-23T22:19:53.388Z,70.25
2022-12-23T22:22:23.097Z,70.47
2022-12-23T22:24:52.418Z,70.37
2022-12-23T22:27:22.236Z,70.14
2022-12-23T22:29:51.620Z,70.60
2022-12-23T22:32:21.512Z,70.27
2022-12-23T22:34:52.456Z,70.26
2022-12-23T22:37:22.258Z,70.39
2022-12-23T22:39:51.574Z,70.09
2022-12-23T22:42:21.212Z,70.25
2022-12-23T22:44:50.531Z,70.45
2022-12-23T22:47:20.242Z,70.54
2022-12-23T22:49:49.437Z,70.30
2022-12-23T22:52:20.441Z,70.49
2022-12-23T22:54:49.642Z,70.56
2022-12-23T22:57:19.189Z,70.75
2022-12-23T22:59:48.327Z,70.48
2022-12-23T23:02:18.086Z,70.40
2022-12-23T23:04:47.435Z,70.70
2022-12-23T23:07:17.031Z,70.67
2022-12-23T23:09:47.663Z,70.51
2022-12-23T23:12:17.281Z,70.99
2022-12-23T23:14:55.490Z,71.19
2022-12-23T23:17:26.046Z,71.09
2022-12-23T23:19:55.410Z,70.99
2022-12-23T23:22:25.203Z,70.80
2022-12-23T23:24:55.906Z,71.03
2022-12-23T23:27:25.379Z,70.75
2022-12-23T23:29:54.641Z,71.22
2022-12-23T23:32:24.392Z,71.61
2022-12-23T23:34:53.697Z,71.77
2022-12-23T23:37:23.332Z,71.75
2022-12-23T23:39:52.601Z,71.77
2022-12-23T23:42:23.656Z,71.32
2022-12-23T23:44:53.079Z,71.37
2022-12-23T23:47:22.770Z,70.92
2022-12-23T23:49:52.012Z,70.93
2022-12-23T23:52:23.219Z,70.96
2022-12-23T23:54:52.502Z,71.14
2022-12-23T23:57:23.733Z,71.18
2022-12-23T23:59:53.093Z,70.89
